Current Weather

Aurora Muni

Aurora, Illinois (KARR)

Report from: Tuesday, February 27, 2024 2:52 AM CST
Current time: Tuesday, February 27, 2024 3:32 AM CST

Nearby weather – Weather history – Daily summaries
Weather forecast

Present weatherMist
Temperature10.6°C (51.1°F)
Dew point10.0°C (50.0°F)
Winds 8 kts (4.1 m/s, 9.2 mph) South-Southeast (160°)
Visibility4 mi. (6.4 km)
Clouds Sky clear
Altimeter29.42 in.Hg (996 mB)
Relative humidity96 %
Density altitude241 ft. (73 m)
Sea-level pressure99.6 kPa (996 mB, 29.41 in.Hg)
Remarks Fully automated report
Automated weather observing station with precipitation discriminator
Pressure falling more quickly
Flight conditions Marginal Visual Meteorological Conditions
Raw dataKARR 270852Z AUTO 16008KT 4SM BR CLR 11/10 A2942 RMK AO2 SLP959 T01060100 58011
An error has occurred. This application may no longer respond until reloaded. Reload 🗙